LIEE Airport Information

Runway Information
Runway 14 Length 9196 ft width 148 ft
Elevation 9 ft Threshold ft Heading 138
Runway 32 Length 9196 ft Width 148 ft
Elevation 4 ft Threshold ft Heading 318
Airport Frequencies
Type APP Name CAGLIARI A Frequency 118.75 MHZ
Type GND Name Elmas GND Frequency 125.425 MHZ
Type MISC Name SAR Frequency 123.1 MHZ
Type TWR Name TWR Frequency 120.6 MHZ
Airport Navaids
Type VOR-DME Name Cagliari Frequency 113400 KHZ
Type NDB Name Cagliari Frequency 371 KHZ
Airport Weather Information & NOTAM
ADDS - METARS form results

(0538 UTC 13 September 2022)
Data provider http://aviationweather.gov/metar/data/
 
METAR text: LIEE 130520Z 12006KT 9999 FEW012 24/21 Q1013
Conditions at: LIEE (CAGLIARI/ELMAS(A, IT) observed 0520 UTC 13 September 2022
Temperature: 24.0°C (75°F)
Dewpoint: 21.0°C (70°F) [RH = 83%]
Pressure (altimeter): 29.91 inches Hg (1013.0 mb)
Winds: from the ESE (120 degrees) at 7 MPH (6 knots; 3.1 m/s)
Visibility: 6 or more miles (10+ km)
Ceiling: at least 12,000 feet AGL
Clouds: few clouds at 1200 feet AGL
Weather: no significant weather observed at this time

METAR text: LIEE 130450Z 13006KT 9999 FEW010 24/21 Q1013
Conditions at: LIEE (CAGLIARI/ELMAS(A, IT) observed 0450 UTC 13 September 2022
Temperature: 24.0°C (75°F)
Dewpoint: 21.0°C (70°F) [RH = 83%]
Pressure (altimeter): 29.91 inches Hg (1013.0 mb)
Winds: from the SE (130 degrees) at 7 MPH (6 knots; 3.1 m/s)
Visibility: 6 or more miles (10+ km)
Ceiling: at least 12,000 feet AGL
Clouds: few clouds at 1000 feet AGL
Weather: no significant weather observed at this time

Forecast for: LIEE (CAGLIARI/ELMAS(A, IT)
Text: TAF LIEE 130500Z 1306/1406 VRB05KT 9999 FEW030
Forecast period: 0600 to 1000 UTC 13 September 2022
Forecast type: FROM: standard forecast or significant change
Winds: variable direction winds at 6 MPH (5 knots; 2.6 m/s)
Visibility: 6 or more miles (10+ km)
Ceiling: at least 12,000 feet AGL
Clouds: few clouds at 3000 feet AGL
Weather: no significant weather forecast for this period
Text: BECMG 1310/1312 16012KT
Forecast period: 1000 UTC 13 September 2022 to 0600 UTC 14 September 2022
Forecast type: BECOMING: Conditions expected to become as follows by 1200 UTC 13 September 2022
Winds: from the SSE (160 degrees) at 14 MPH (12 knots; 6.2 m/s)
Visibility: 6 or more miles (10+ km)
Ceiling: at least 12,000 feet AGL
Clouds: few clouds at 3000 feet AGL
Weather: no significant weather forecast for this period